createdAt,value
2018-03-20T00:02:19.133Z,68.36
2018-03-20T00:04:47.297Z,67.79
2018-03-20T00:07:15.684Z,67.05
2018-03-20T00:09:43.858Z,65.97
2018-03-20T00:12:12.031Z,67.55
2018-03-20T00:14:40.401Z,69.76
2018-03-20T00:17:09.091Z,70.93
2018-03-20T00:19:37.985Z,69.39
2018-03-20T00:22:06.560Z,68.23
2018-03-20T00:24:34.844Z,67.38
2018-03-20T00:27:03.224Z,67.70
2018-03-20T00:29:31.402Z,68.29
2018-03-20T00:31:59.775Z,69.30
2018-03-20T00:34:28.070Z,69.09
2018-03-20T00:36:56.521Z,68.58
2018-03-20T00:39:24.787Z,68.35
2018-03-20T00:41:53.010Z,67.49
2018-03-20T00:44:21.149Z,71.74
2018-03-20T00:46:49.639Z,70.77
2018-03-20T00:49:18.617Z,69.08
2018-03-20T00:51:47.302Z,62.63
2018-03-20T00:54:15.681Z,68.27
2018-03-20T00:56:44.270Z,65.63
2018-03-20T00:59:12.474Z,63.28
2018-03-20T01:01:41.225Z,63.50
2018-03-20T01:04:09.799Z,62.56
2018-03-20T01:06:38.071Z,64.81
2018-03-20T01:09:06.357Z,65.17
2018-03-20T01:11:34.842Z,62.97
2018-03-20T01:14:03.114Z,68.83
2018-03-20T01:16:31.393Z,66.43
2018-03-20T01:18:59.766Z,67.17
2018-03-20T01:21:27.942Z,64.15
2018-03-20T01:23:56.109Z,65.83
2018-03-20T01:26:24.489Z,64.80
2018-03-20T01:28:52.569Z,65.69
2018-03-20T01:31:21.666Z,65.78
2018-03-20T01:33:50.142Z,67.84
2018-03-20T01:36:18.891Z,69.03
2018-03-20T01:38:47.098Z,66.40
2018-03-20T01:41:15.479Z,66.46
2018-03-20T01:43:43.746Z,66.89
2018-03-20T01:46:12.337Z,65.34
2018-03-20T01:48:40.617Z,64.60
2018-03-20T01:51:08.989Z,63.79
2018-03-20T01:53:37.675Z,65.15
2018-03-20T01:56:06.065Z,64.82
2018-03-20T01:58:34.430Z,65.31
2018-03-20T02:01:02.960Z,64.50
2018-03-20T02:03:31.481Z,64.16
2018-03-20T02:05:59.873Z,64.10
2018-03-20T02:08:28.152Z,64.39
2018-03-20T02:10:56.628Z,64.83
2018-03-20T02:13:25.250Z,64.58
2018-03-20T02:15:53.982Z,64.57
2018-03-20T02:18:22.480Z,64.31
2018-03-20T02:20:50.961Z,65.22
2018-03-20T02:23:19.248Z,66.49
2018-03-20T02:25:47.613Z,66.08
2018-03-20T02:28:15.978Z,67.03
2018-03-20T02:30:44.259Z,66.57
2018-03-20T02:33:12.530Z,65.34
2018-03-20T02:35:41.138Z,64.24
2018-03-20T02:38:09.601Z,64.10
2018-03-20T02:40:37.745Z,63.50
2018-03-20T02:43:06.269Z,62.96
2018-03-20T02:45:34.418Z,64.04
2018-03-20T02:48:02.610Z,64.76
2018-03-20T02:50:30.782Z,64.25
2018-03-20T02:52:59.366Z,64.13
2018-03-20T02:55:27.743Z,64.82
2018-03-20T02:57:56.942Z,65.29
2018-03-20T03:00:25.408Z,63.44
2018-03-20T03:02:53.690Z,63.37
2018-03-20T03:05:22.278Z,62.17
2018-03-20T03:07:50.661Z,62.89
2018-03-20T03:10:19.133Z,63.12
2018-03-20T03:12:47.389Z,62.53
2018-03-20T03:15:15.890Z,63.12
2018-03-20T03:17:44.483Z,64.41
2018-03-20T03:20:12.405Z,65.28
2018-03-20T03:22:40.468Z,66.53
2018-03-20T03:25:08.888Z,66.44
2018-03-20T03:27:37.065Z,65.85
2018-03-20T03:30:05.053Z,65.11
2018-03-20T03:32:33.413Z,63.73
2018-03-20T03:35:01.893Z,62.77
2018-03-20T03:37:30.156Z,64.92
2018-03-20T03:39:58.540Z,65.85
2018-03-20T03:42:27.022Z,66.37
2018-03-20T03:44:55.278Z,63.93
2018-03-20T03:47:23.887Z,64.12
2018-03-20T03:49:52.278Z,63.70
2018-03-20T03:52:20.318Z,63.80
2018-03-20T03:54:48.601Z,63.63
2018-03-20T03:57:17.085Z,64.28
2018-03-20T03:59:45.564Z,64.04
2018-03-20T04:02:13.833Z,64.00
2018-03-20T04:04:42.428Z,63.64
2018-03-20T04:07:11.104Z,64.20
2018-03-20T04:09:39.230Z,63.31
2018-03-20T04:12:07.768Z,65.49
2018-03-20T04:14:36.232Z,68.14
2018-03-20T04:17:04.717Z,66.41
2018-03-20T04:19:33.113Z,65.37
2018-03-20T04:22:01.465Z,64.03
2018-03-20T04:24:29.856Z,64.25
2018-03-20T04:26:58.327Z,63.78
2018-03-20T04:29:26.708Z,63.54
2018-03-20T04:31:55.505Z,63.52
2018-03-20T04:34:23.985Z,62.92
2018-03-20T04:36:52.052Z,62.98
2018-03-20T04:39:20.845Z,64.29
2018-03-20T04:41:49.059Z,63.42
2018-03-20T04:44:17.402Z,63.95
2018-03-20T04:46:45.767Z,63.29
2018-03-20T04:49:14.205Z,62.69
2018-03-20T04:51:42.738Z,62.68
2018-03-20T04:54:10.821Z,62.83
2018-03-20T04:56:39.290Z,63.04
2018-03-20T04:59:07.665Z,63.22
2018-03-20T05:01:35.937Z,64.21
2018-03-20T05:04:04.538Z,64.91
2018-03-20T05:06:33.003Z,64.30
2018-03-20T05:09:01.485Z,63.31
2018-03-20T05:11:29.981Z,63.07
2018-03-20T05:13:58.346Z,62.30
2018-03-20T05:16:26.822Z,61.83
2018-03-20T05:22:24.892Z,61.34
2018-03-20T05:24:53.195Z,61.53
2018-03-20T05:27:21.873Z,65.37
2018-03-20T05:29:50.465Z,64.98
2018-03-20T05:32:18.764Z,63.60
2018-03-20T05:34:47.227Z,67.13
2018-03-20T05:37:15.797Z,65.12
2018-03-20T05:39:44.322Z,64.66
2018-03-20T05:42:12.659Z,64.07
2018-03-20T05:44:41.022Z,65.62
2018-03-20T05:47:26.296Z,64.58
2018-03-20T05:50:14.641Z,65.04
2018-03-20T05:52:43.137Z,63.44
2018-03-20T05:55:11.731Z,61.74
2018-03-20T05:57:40.137Z,62.80
2018-03-20T06:00:09.596Z,62.97
2018-03-20T06:02:37.669Z,61.46
2018-03-20T06:05:06.247Z,60.52
2018-03-20T06:07:34.517Z,58.29
2018-03-20T06:10:03.022Z,57.53
2018-03-20T06:12:31.571Z,55.62
2018-03-20T06:14:59.801Z,53.04
2018-03-20T06:17:28.145Z,53.69
2018-03-20T06:19:56.729Z,52.21
2018-03-20T06:28:20.028Z,51.81
2018-03-20T06:30:48.716Z,51.00
2018-03-20T06:33:17.386Z,46.74
2018-03-20T06:35:46.241Z,50.35
2018-03-20T06:38:14.875Z,49.30
2018-03-20T06:40:43.467Z,48.46
2018-03-20T06:43:12.228Z,47.46
2018-03-20T06:45:40.516Z,44.46
2018-03-20T06:48:09.405Z,42.79
2018-03-20T06:50:38.286Z,42.13
2018-03-20T06:53:06.698Z,41.10
2018-03-20T06:55:35.261Z,41.73
2018-03-20T06:58:03.506Z,43.52
2018-03-20T07:00:31.914Z,41.82
2018-03-20T07:03:00.806Z,45.93
2018-03-20T07:05:29.194Z,43.39
2018-03-20T07:07:57.760Z,39.70
2018-03-20T07:10:26.333Z,42.43
2018-03-20T07:12:54.726Z,36.94
2018-03-20T07:15:23.410Z,37.65
2018-03-20T07:17:51.895Z,39.16
2018-03-20T07:20:20.347Z,36.21
2018-03-20T07:22:48.797Z,37.62
2018-03-20T07:25:17.538Z,35.54
2018-03-20T07:27:46.221Z,35.41
2018-03-20T07:30:14.591Z,33.30
2018-03-20T07:32:43.281Z,32.80
2018-03-20T07:35:11.205Z,32.18
2018-03-20T07:37:39.938Z,30.17
2018-03-20T07:40:08.298Z,32.16
2018-03-20T07:42:36.372Z,31.98
2018-03-20T07:45:04.853Z,33.25
2018-03-20T07:47:32.923Z,29.39
2018-03-20T07:50:01.524Z,30.69
2018-03-20T07:52:30.007Z,27.17
2018-03-20T07:54:58.582Z,26.23
2018-03-20T07:57:27.166Z,27.69
2018-03-20T07:59:55.837Z,27.33
2018-03-20T08:02:24.219Z,28.86
2018-03-20T08:04:52.921Z,26.23
2018-03-20T08:07:21.601Z,26.25
2018-03-20T08:09:49.968Z,25.91
2018-03-20T08:12:18.764Z,23.49
2018-03-20T08:14:47.141Z,28.96
2018-03-20T08:17:15.816Z,28.21
2018-03-20T08:19:43.741Z,27.81
2018-03-20T08:22:11.664Z,26.96
2018-03-20T08:24:39.625Z,28.21
2018-03-20T08:27:07.534Z,27.97
2018-03-20T08:29:35.875Z,30.04
2018-03-20T08:32:03.837Z,28.53
2018-03-20T08:34:31.833Z,29.87
2018-03-20T08:36:59.814Z,28.91
2018-03-20T08:39:27.825Z,25.98
2018-03-20T08:41:55.787Z,24.17
2018-03-20T08:44:23.812Z,23.21
2018-03-20T08:46:51.810Z,21.53
2018-03-20T08:49:19.778Z,22.42
2018-03-20T08:51:47.745Z,22.11
2018-03-20T08:54:15.675Z,21.68
2018-03-20T08:56:43.643Z,21.54
2018-03-20T08:59:11.594Z,23.81
2018-03-20T09:01:39.507Z,25.40
2018-03-20T09:04:07.588Z,24.83
2018-03-20T09:06:35.600Z,24.03
2018-03-20T09:09:03.619Z,24.89
2018-03-20T09:11:31.523Z,25.43
2018-03-20T09:13:59.481Z,25.67
2018-03-20T09:16:27.565Z,26.12
2018-03-20T09:18:55.943Z,22.69
2018-03-20T09:21:24.254Z,23.50
2018-03-20T09:23:52.813Z,23.38
2018-03-20T09:26:21.615Z,22.31
2018-03-20T09:28:50.290Z,23.13
2018-03-20T09:31:18.666Z,23.88
2018-03-20T09:33:47.246Z,25.34
2018-03-20T09:36:15.470Z,25.87
2018-03-20T09:38:44.000Z,27.78
2018-03-20T09:41:12.490Z,26.41
2018-03-20T09:43:41.054Z,25.75
2018-03-20T09:46:09.440Z,24.40
2018-03-20T09:48:37.930Z,25.79
2018-03-20T09:51:06.301Z,27.09
2018-03-20T09:53:34.687Z,25.14
2018-03-20T09:56:03.035Z,27.95
2018-03-20T09:58:31.440Z,24.05
2018-03-20T10:01:00.017Z,23.42
2018-03-20T10:03:28.394Z,22.46
2018-03-20T10:05:56.977Z,24.70
2018-03-20T10:08:25.345Z,24.47
2018-03-20T10:10:54.032Z,22.55
2018-03-20T10:13:22.629Z,20.51
2018-03-20T10:15:51.219Z,21.36
2018-03-20T10:18:19.602Z,19.69
2018-03-20T10:20:48.066Z,19.97
2018-03-20T10:23:15.956Z,19.05
2018-03-20T10:25:43.860Z,20.25
2018-03-20T10:28:11.818Z,20.99
2018-03-20T10:30:39.758Z,22.41
2018-03-20T10:33:08.017Z,21.22
2018-03-20T10:35:36.434Z,22.58
2018-03-20T10:38:04.410Z,21.26
2018-03-20T10:40:32.619Z,23.29
2018-03-20T10:43:01.325Z,23.85
2018-03-20T10:45:29.261Z,20.70
2018-03-20T10:47:57.206Z,20.31
2018-03-20T10:50:25.632Z,20.19
2018-03-20T10:52:54.022Z,20.25
2018-03-20T10:55:22.494Z,20.38
2018-03-20T10:57:51.074Z,18.35
2018-03-20T11:00:24.913Z,18.75
2018-03-20T11:02:53.676Z,20.23
2018-03-20T11:05:21.624Z,21.90
2018-03-20T11:07:49.601Z,20.10
2018-03-20T11:10:17.533Z,19.89
2018-03-20T11:12:45.510Z,21.34
2018-03-20T11:15:13.455Z,20.01
2018-03-20T11:17:41.334Z,19.92
2018-03-20T11:20:09.278Z,21.45
2018-03-20T11:22:37.249Z,20.44
2018-03-20T11:25:05.235Z,23.64
2018-03-20T11:27:33.243Z,21.86
2018-03-20T11:30:01.541Z,21.78
2018-03-20T11:32:30.006Z,21.17
2018-03-20T11:34:58.501Z,23.05
2018-03-20T11:37:26.443Z,25.98
2018-03-20T11:39:54.378Z,26.67
2018-03-20T11:42:22.339Z,27.20
2018-03-20T11:44:50.296Z,27.84
2018-03-20T11:47:18.246Z,28.94
2018-03-20T11:49:46.140Z,28.35
2018-03-20T11:52:14.097Z,25.65
2018-03-20T11:54:42.043Z,24.84
2018-03-20T11:57:10.007Z,23.58
2018-03-20T11:59:37.837Z,26.01
2018-03-20T12:02:05.766Z,26.56
2018-03-20T12:04:33.778Z,27.79
2018-03-20T12:07:02.486Z,26.09
2018-03-20T12:09:51.953Z,26.50
2018-03-20T12:12:20.328Z,26.89
2018-03-20T12:14:48.813Z,26.10
2018-03-20T12:17:17.480Z,28.51
2018-03-20T12:19:45.918Z,27.36
2018-03-20T12:22:14.562Z,32.51
2018-03-20T12:24:43.031Z,28.85
2018-03-20T12:27:11.631Z,28.93
2018-03-20T12:29:40.005Z,28.25
2018-03-20T12:32:08.586Z,26.42
2018-03-20T12:34:36.797Z,26.29
2018-03-20T12:37:05.649Z,28.05
2018-03-20T12:39:34.329Z,25.28
2018-03-20T12:42:02.591Z,25.99
2018-03-20T12:44:31.201Z,26.62
2018-03-20T12:47:00.181Z,25.52
2018-03-20T12:49:28.562Z,25.24
2018-03-20T12:51:57.041Z,23.59
2018-03-20T12:54:25.621Z,25.46
2018-03-20T12:56:54.213Z,26.41
2018-03-20T12:59:22.807Z,27.81
2018-03-20T13:01:50.847Z,29.22
2018-03-20T13:04:19.157Z,30.95
2018-03-20T13:06:47.095Z,32.57
2018-03-20T13:09:15.095Z,34.58
2018-03-20T13:11:43.093Z,33.22
2018-03-20T13:14:11.529Z,34.99
2018-03-20T13:16:40.040Z,32.28
2018-03-20T13:19:08.473Z,32.11
2018-03-20T13:21:37.260Z,34.36
2018-03-20T13:24:05.500Z,35.82
2018-03-20T13:26:34.230Z,35.69
2018-03-20T13:29:02.726Z,32.91
2018-03-20T13:31:30.982Z,33.76
2018-03-20T13:33:59.466Z,31.59
2018-03-20T13:36:28.040Z,32.29
2018-03-20T13:38:56.832Z,34.03
2018-03-20T13:41:25.312Z,32.53
2018-03-20T13:43:53.529Z,32.83
2018-03-20T13:46:21.972Z,33.26
2018-03-20T13:48:50.559Z,32.80
2018-03-20T13:51:19.122Z,33.09
2018-03-20T13:53:47.518Z,34.83
2018-03-20T13:56:15.993Z,33.30
2018-03-20T13:58:44.523Z,35.46
2018-03-20T14:01:12.955Z,32.98
2018-03-20T14:03:41.847Z,32.60
2018-03-20T14:06:10.438Z,33.65
2018-03-20T14:08:38.917Z,33.99
2018-03-20T14:11:07.286Z,34.10
2018-03-20T14:13:35.755Z,34.58
2018-03-20T14:16:04.251Z,32.63
2018-03-20T14:18:32.729Z,32.67
2018-03-20T14:21:01.058Z,30.25
2018-03-20T14:23:29.686Z,29.58
2018-03-20T14:25:58.065Z,32.39
2018-03-20T14:28:26.349Z,32.30
2018-03-20T14:30:54.622Z,31.10
2018-03-20T14:33:23.390Z,30.39
2018-03-20T14:35:51.894Z,30.18
2018-03-20T14:38:20.158Z,29.21
2018-03-20T14:40:48.728Z,31.11
2018-03-20T14:43:17.223Z,30.81
2018-03-20T14:45:45.807Z,33.20
2018-03-20T14:48:14.196Z,31.52
2018-03-20T14:50:42.674Z,31.96
2018-03-20T14:53:11.188Z,31.49
2018-03-20T14:55:39.730Z,33.04
2018-03-20T14:58:08.205Z,30.60
2018-03-20T15:00:36.789Z,28.97
2018-03-20T15:03:05.284Z,28.25
2018-03-20T15:05:33.848Z,28.13
2018-03-20T15:08:02.229Z,29.75
2018-03-20T15:10:30.714Z,29.26
2018-03-20T15:12:59.299Z,28.88
2018-03-20T15:15:27.877Z,27.71
2018-03-20T15:17:56.456Z,28.25
2018-03-20T15:20:24.790Z,31.02
2018-03-20T15:22:53.322Z,30.01
2018-03-20T15:25:21.911Z,30.48
2018-03-20T15:27:50.290Z,32.23
2018-03-20T15:30:18.862Z,31.53
2018-03-20T15:32:47.652Z,32.32
2018-03-20T15:35:16.240Z,30.83
2018-03-20T15:37:44.638Z,30.99
2018-03-20T15:40:13.496Z,31.40
2018-03-20T15:42:42.181Z,31.58
2018-03-20T15:45:10.576Z,31.48
2018-03-20T15:47:38.947Z,30.99
2018-03-20T15:50:07.723Z,31.28
2018-03-20T15:52:36.043Z,31.20
2018-03-20T15:55:04.367Z,32.08
2018-03-20T15:57:33.257Z,31.69
2018-03-20T16:00:01.515Z,31.61
2018-03-20T16:02:30.327Z,30.43
2018-03-20T16:04:58.802Z,28.80
2018-03-20T16:07:27.298Z,30.54
2018-03-20T16:09:56.097Z,31.50
2018-03-20T16:12:24.456Z,33.70
2018-03-20T16:14:52.891Z,32.64
2018-03-20T16:17:21.520Z,32.66
2018-03-20T16:19:49.736Z,31.96
2018-03-20T16:22:18.590Z,30.28
2018-03-20T16:24:46.772Z,29.09
2018-03-20T16:27:15.346Z,29.49
2018-03-20T16:29:43.715Z,31.38
2018-03-20T16:32:12.337Z,31.45
2018-03-20T16:34:40.990Z,30.92
2018-03-20T16:37:09.764Z,31.13
2018-03-20T16:39:38.297Z,32.96
2018-03-20T16:42:06.838Z,33.11
2018-03-20T16:44:35.839Z,33.66
2018-03-20T16:47:04.186Z,34.69
2018-03-20T16:49:32.789Z,35.67
2018-03-20T16:52:01.582Z,35.17
2018-03-20T16:54:30.060Z,32.92
2018-03-20T16:56:58.235Z,35.21
2018-03-20T16:59:26.720Z,35.40
2018-03-20T17:01:55.300Z,34.71
2018-03-20T17:04:23.882Z,32.75
2018-03-20T17:06:52.257Z,32.98
2018-03-20T17:09:20.657Z,33.43
2018-03-20T17:11:49.121Z,34.22
2018-03-20T17:14:17.476Z,34.78
2018-03-20T17:16:45.769Z,34.82
2018-03-20T17:19:14.048Z,35.25
2018-03-20T17:21:42.732Z,36.65
2018-03-20T17:24:11.214Z,38.19
2018-03-20T17:26:39.650Z,37.23
2018-03-20T17:29:08.093Z,37.06
2018-03-20T17:31:36.970Z,37.49
2018-03-20T17:34:05.194Z,39.16
2018-03-20T17:36:33.613Z,40.93
2018-03-20T17:39:02.712Z,40.25
2018-03-20T17:41:31.397Z,39.05
2018-03-20T17:43:59.991Z,38.42
2018-03-20T17:46:28.616Z,39.39
2018-03-20T17:48:57.350Z,38.92
2018-03-20T17:51:25.930Z,37.31
2018-03-20T17:53:54.762Z,37.15
2018-03-20T17:56:23.198Z,39.02
2018-03-20T17:58:51.787Z,40.29
2018-03-20T18:01:20.348Z,39.58
2018-03-20T18:03:48.847Z,40.46
2018-03-20T18:06:17.426Z,39.96
2018-03-20T18:08:46.008Z,39.69
2018-03-20T18:11:14.494Z,41.01
2018-03-20T18:13:42.944Z,41.58
2018-03-20T18:16:11.448Z,41.54
2018-03-20T18:18:39.932Z,40.31
2018-03-20T18:21:08.474Z,41.11
2018-03-20T18:23:36.894Z,39.73
2018-03-20T18:26:05.876Z,39.32
2018-03-20T18:28:34.274Z,39.70
2018-03-20T18:31:02.956Z,38.58
2018-03-20T18:33:31.635Z,40.14
2018-03-20T18:35:59.654Z,40.58
2018-03-20T18:38:28.593Z,40.50
2018-03-20T18:40:57.278Z,41.99
2018-03-20T18:43:25.757Z,41.45
2018-03-20T18:45:54.228Z,40.54
2018-03-20T18:48:22.822Z,41.11
2018-03-20T18:50:51.515Z,41.29
2018-03-20T18:53:19.687Z,40.59
2018-03-20T18:55:47.953Z,40.07
2018-03-20T18:58:16.350Z,42.42
2018-03-20T19:00:44.923Z,40.17
2018-03-20T19:03:13.401Z,42.31
2018-03-20T19:05:41.809Z,41.10
2018-03-20T19:08:10.365Z,40.98
2018-03-20T19:10:38.899Z,41.86
2018-03-20T19:13:07.209Z,41.72
2018-03-20T19:15:35.706Z,40.89
2018-03-20T19:18:04.369Z,39.82
2018-03-20T19:20:32.920Z,41.77
2018-03-20T19:23:01.463Z,41.20
2018-03-20T19:25:30.024Z,41.48
2018-03-20T19:27:58.515Z,43.09
2018-03-20T19:30:26.985Z,41.85
2018-03-20T19:32:55.248Z,40.84
2018-03-20T19:35:23.846Z,40.33
2018-03-20T19:37:52.629Z,41.94
2018-03-20T19:40:21.212Z,43.89
2018-03-20T19:42:49.629Z,43.10
2018-03-20T19:45:18.074Z,42.54
2018-03-20T19:47:46.652Z,40.61
2018-03-20T19:50:15.554Z,40.74
2018-03-20T19:52:43.925Z,42.51
2018-03-20T19:55:12.306Z,44.08
2018-03-20T19:57:40.868Z,45.37
2018-03-20T20:00:09.144Z,45.13
2018-03-20T20:02:37.647Z,45.44
2018-03-20T20:05:06.141Z,44.56
2018-03-20T20:07:34.711Z,44.09
2018-03-20T20:10:03.392Z,43.71
2018-03-20T20:12:31.770Z,43.29
2018-03-20T20:15:00.354Z,44.23
2018-03-20T20:17:28.940Z,44.27
2018-03-20T20:19:57.419Z,43.80
2018-03-20T20:22:25.890Z,44.68
2018-03-20T20:24:54.375Z,44.38
2018-03-20T20:27:22.654Z,43.79
2018-03-20T20:29:51.033Z,46.46
2018-03-20T20:32:19.617Z,47.57
2018-03-20T20:34:48.098Z,48.55
2018-03-20T20:37:16.490Z,48.77
2018-03-20T20:39:45.079Z,46.95
2018-03-20T20:42:13.535Z,45.85
2018-03-20T20:44:41.904Z,45.60
2018-03-20T20:47:10.494Z,45.09
2018-03-20T20:49:38.972Z,45.20
2018-03-20T20:52:07.752Z,44.38
2018-03-20T20:54:36.241Z,43.74
2018-03-20T20:57:04.820Z,43.84
2018-03-20T20:59:33.300Z,44.83
2018-03-20T21:02:01.891Z,44.43
2018-03-20T21:04:29.864Z,44.47
2018-03-20T21:06:57.877Z,43.65
2018-03-20T21:09:26.185Z,45.49
2018-03-20T21:11:54.581Z,48.16
2018-03-20T21:14:23.162Z,49.27
2018-03-20T21:16:51.750Z,47.87
2018-03-20T21:19:20.132Z,46.95
2018-03-20T21:21:48.604Z,46.03
2018-03-20T21:24:17.290Z,46.60
2018-03-20T21:26:45.565Z,46.61
2018-03-20T21:29:14.149Z,46.54
2018-03-20T21:31:43.091Z,46.19
2018-03-20T21:34:11.604Z,46.32
2018-03-20T21:36:39.899Z,45.73
2018-03-20T21:39:08.477Z,46.48
2018-03-20T21:41:36.852Z,47.72
2018-03-20T21:44:05.343Z,46.22
2018-03-20T21:46:33.904Z,46.42
2018-03-20T21:49:02.402Z,45.93
2018-03-20T21:51:30.682Z,46.61
2018-03-20T21:53:59.098Z,47.85
2018-03-20T21:56:27.732Z,49.99
2018-03-20T21:58:55.961Z,51.82
2018-03-20T22:01:24.504Z,46.94
2018-03-20T22:03:53.381Z,47.42
2018-03-20T22:06:22.182Z,47.33
2018-03-20T22:08:50.964Z,46.10
2018-03-20T22:11:19.437Z,48.27
2018-03-20T22:13:47.708Z,47.79
2018-03-20T22:16:16.093Z,47.48
2018-03-20T22:18:44.370Z,47.19
2018-03-20T22:21:13.056Z,47.16
2018-03-20T22:23:41.538Z,47.45
2018-03-20T22:26:09.748Z,46.82
2018-03-20T22:28:38.313Z,47.50
2018-03-20T22:31:06.862Z,47.31
2018-03-20T22:33:35.516Z,47.39
2018-03-20T22:36:03.942Z,47.49
2018-03-20T22:38:32.925Z,47.14
2018-03-20T22:41:01.323Z,47.09
2018-03-20T22:43:29.588Z,47.01
2018-03-20T22:45:57.961Z,47.24
2018-03-20T22:48:26.243Z,46.97
2018-03-20T22:50:54.826Z,47.30
2018-03-20T22:53:22.996Z,47.80
2018-03-20T22:55:51.834Z,48.37
2018-03-20T22:58:20.266Z,48.22
2018-03-20T23:00:48.630Z,48.68
2018-03-20T23:03:17.410Z,49.30
2018-03-20T23:05:45.863Z,48.53
2018-03-20T23:51:54.302Z,49.18
2018-03-20T23:54:22.781Z,48.85
2018-03-20T23:56:51.097Z,49.43
2018-03-20T23:59:19.542Z,49.24
